sensor_id;sensor_type;location;lat;lon;timestamp;P1;P2;P0
54869;PMS5003;40756;-37.950;145.008;2022-07-29T00:00:42;13;12;
54869;PMS5003;40756;-37.950;145.008;2022-07-29T00:03:12;13;12;
54869;PMS5003;40756;-37.950;145.008;2022-07-29T00:05:42;17;16;
54869;PMS5003;40756;-37.950;145.008;2022-07-29T00:08:11;12;11;
54869;PMS5003;40756;-37.950;145.008;2022-07-29T00:10:42;12;12;
54869;PMS5003;40756;-37.950;145.008;2022-07-29T00:13:12;13;11;
54869;PMS5003;40756;-37.950;145.008;2022-07-29T00:15:41;11;11;
54869;PMS5003;40756;-37.950;145.008;2022-07-29T00:18:11;13;13;
54869;PMS5003;40756;-37.950;145.008;2022-07-29T00:20:41;15;14;
54869;PMS5003;40756;-37.950;145.008;2022-07-29T00:23:11;11;11;
54869;PMS5003;40756;-37.950;145.008;2022-07-29T00:25:40;8;8;
54869;PMS5003;40756;-37.950;145.008;2022-07-29T00:28:10;7;7;
54869;PMS5003;40756;-37.950;145.008;2022-07-29T00:30:40;9;8;
54869;PMS5003;40756;-37.950;145.008;2022-07-29T00:33:10;13;13;
54869;PMS5003;40756;-37.950;145.008;2022-07-29T00:35:39;11;10;
54869;PMS5003;40756;-37.950;145.008;2022-07-29T00:38:09;13;13;
54869;PMS5003;40756;-37.950;145.008;2022-07-29T00:40:40;8;8;
54869;PMS5003;40756;-37.950;145.008;2022-07-29T00:43:12;9;8;
54869;PMS5003;40756;-37.950;145.008;2022-07-29T00:45:42;13;12;
54869;PMS5003;40756;-37.950;145.008;2022-07-29T00:48:11;9;9;
54869;PMS5003;40756;-37.950;145.008;2022-07-29T00:50:41;10;9;
54869;PMS5003;40756;-37.950;145.008;2022-07-29T00:53:11;13;13;
54869;PMS5003;40756;-37.950;145.008;2022-07-29T00:55:40;14;14;
54869;PMS5003;40756;-37.950;145.008;2022-07-29T00:58:11;5;5;
54869;PMS5003;40756;-37.950;145.008;2022-07-29T01:00:41;6;5;
54869;PMS5003;40756;-37.950;145.008;2022-07-29T01:03:11;5;4;
54869;PMS5003;40756;-37.950;145.008;2022-07-29T01:05:41;6;6;
54869;PMS5003;40756;-37.950;145.008;2022-07-29T01:08:13;5;4;
54869;PMS5003;40756;-37.950;145.008;2022-07-29T01:10:45;5;4;
54869;PMS5003;40756;-37.950;145.008;2022-07-29T01:13:15;2;2;
54869;PMS5003;40756;-37.950;145.008;2022-07-29T01:15:47;2;2;
54869;PMS5003;40756;-37.950;145.008;2022-07-29T01:18:24;3;3;
54869;PMS5003;40756;-37.950;145.008;2022-07-29T01:21:07;2;2;
54869;PMS5003;40756;-37.950;145.008;2022-07-29T01:24:02;3;2;
54869;PMS5003;40756;-37.950;145.008;2022-07-29T01:27:04;3;3;
54869;PMS5003;40756;-37.950;145.008;2022-07-29T01:29:45;3;3;
54869;PMS5003;40756;-37.950;145.008;2022-07-29T01:32:21;3;2;
54869;PMS5003;40756;-37.950;145.008;2022-07-29T01:34:54;4;4;
54869;PMS5003;40756;-37.950;145.008;2022-07-29T01:37:31;8;8;
54869;PMS5003;40756;-37.950;145.008;2022-07-29T01:40:06;2;2;
54869;PMS5003;40756;-37.950;145.008;2022-07-29T01:42:43;5;4;
54869;PMS5003;40756;-37.950;145.008;2022-07-29T01:45:17;4;4;
54869;PMS5003;40756;-37.950;145.008;2022-07-29T01:47:52;3;2;
54869;PMS5003;40756;-37.950;145.008;2022-07-29T01:50:30;4;4;
54869;PMS5003;40756;-37.950;145.008;2022-07-29T01:53:04;4;3;
54869;PMS5003;40756;-37.950;145.008;2022-07-29T01:55:38;4;3;
54869;PMS5003;40756;-37.950;145.008;2022-07-29T01:58:11;3;3;
54869;PMS5003;40756;-37.950;145.008;2022-07-29T02:00:42;1;1;
54869;PMS5003;40756;-37.950;145.008;2022-07-29T02:03:14;2;2;
54869;PMS5003;40756;-37.950;145.008;2022-07-29T02:05:46;2;2;
54869;PMS5003;40756;-37.950;145.008;2022-07-29T02:08:17;3;2;
54869;PMS5003;40756;-37.950;145.008;2022-07-29T02:10:49;1;1;
54869;PMS5003;40756;-37.950;145.008;2022-07-29T02:13:20;2;2;
54869;PMS5003;40756;-37.950;145.008;2022-07-29T02:15:52;2;1;
54869;PMS5003;40756;-37.950;145.008;2022-07-29T02:18:23;2;2;
54869;PMS5003;40756;-37.950;145.008;2022-07-29T02:20:55;2;2;
54869;PMS5003;40756;-37.950;145.008;2022-07-29T02:23:27;4;2;
54869;PMS5003;40756;-37.950;145.008;2022-07-29T02:25:58;2;1;
54869;PMS5003;40756;-37.950;145.008;2022-07-29T02:28:29;0;0;
54869;PMS5003;40756;-37.950;145.008;2022-07-29T02:31:00;1;1;
54869;PMS5003;40756;-37.950;145.008;2022-07-29T02:33:31;1;1;
54869;PMS5003;40756;-37.950;145.008;2022-07-29T02:36:02;4;3;
54869;PMS5003;40756;-37.950;145.008;2022-07-29T02:38:32;2;2;
54869;PMS5003;40756;-37.950;145.008;2022-07-29T02:41:05;1;0;
54869;PMS5003;40756;-37.950;145.008;2022-07-29T02:43:40;1;1;
54869;PMS5003;40756;-37.950;145.008;2022-07-29T02:46:13;1;1;
54869;PMS5003;40756;-37.950;145.008;2022-07-29T02:48:48;1;1;
54869;PMS5003;40756;-37.950;145.008;2022-07-29T02:51:27;1;1;
54869;PMS5003;40756;-37.950;145.008;2022-07-29T02:54:06;2;2;
54869;PMS5003;40756;-37.950;145.008;2022-07-29T02:56:37;3;2;
54869;PMS5003;40756;-37.950;145.008;2022-07-29T02:59:10;1;1;
54869;PMS5003;40756;-37.950;145.008;2022-07-29T03:01:42;1;1;
54869;PMS5003;40756;-37.950;145.008;2022-07-29T03:04:12;2;2;
54869;PMS5003;40756;-37.950;145.008;2022-07-29T03:06:46;2;1;
54869;PMS5003;40756;-37.950;145.008;2022-07-29T03:09:18;2;2;
54869;PMS5003;40756;-37.950;145.008;2022-07-29T03:11:49;1;1;
54869;PMS5003;40756;-37.950;145.008;2022-07-29T03:14:19;1;1;
54869;PMS5003;40756;-37.950;145.008;2022-07-29T03:16:49;1;1;
54869;PMS5003;40756;-37.950;145.008;2022-07-29T03:19:19;2;2;
54869;PMS5003;40756;-37.950;145.008;2022-07-29T03:21:49;1;1;
54869;PMS5003;40756;-37.950;145.008;2022-07-29T03:24:24;0;0;
54869;PMS5003;40756;-37.950;145.008;2022-07-29T03:26:56;1;1;
54869;PMS5003;40756;-37.950;145.008;2022-07-29T03:29:26;1;1;
54869;PMS5003;40756;-37.950;145.008;2022-07-29T03:31:57;0;0;
54869;PMS5003;40756;-37.950;145.008;2022-07-29T03:34:26;2;0;
54869;PMS5003;40756;-37.950;145.008;2022-07-29T03:36:56;1;1;
54869;PMS5003;40756;-37.950;145.008;2022-07-29T03:39:27;2;1;
54869;PMS5003;40756;-37.950;145.008;2022-07-29T03:42:00;2;1;
54869;PMS5003;40756;-37.950;145.008;2022-07-29T03:44:33;0;0;
54869;PMS5003;40756;-37.950;145.008;2022-07-29T03:47:04;3;3;
54869;PMS5003;40756;-37.950;145.008;2022-07-29T03:49:37;3;2;
54869;PMS5003;40756;-37.950;145.008;2022-07-29T03:52:13;2;2;
54869;PMS5003;40756;-37.950;145.008;2022-07-29T03:54:43;1;1;
54869;PMS5003;40756;-37.950;145.008;2022-07-29T03:57:14;2;2;
54869;PMS5003;40756;-37.950;145.008;2022-07-29T03:59:46;1;0;
54869;PMS5003;40756;-37.950;145.008;2022-07-29T04:02:16;2;1;
54869;PMS5003;40756;-37.950;145.008;2022-07-29T04:04:46;3;2;
54869;PMS5003;40756;-37.950;145.008;2022-07-29T04:07:16;2;1;
54869;PMS5003;40756;-37.950;145.008;2022-07-29T04:09:46;4;2;
54869;PMS5003;40756;-37.950;145.008;2022-07-29T04:12:15;1;1;
54869;PMS5003;40756;-37.950;145.008;2022-07-29T04:14:45;2;2;
54869;PMS5003;40756;-37.950;145.008;2022-07-29T04:17:14;0;0;
54869;PMS5003;40756;-37.950;145.008;2022-07-29T04:19:44;2;1;
54869;PMS5003;40756;-37.950;145.008;2022-07-29T04:22:14;2;2;
54869;PMS5003;40756;-37.950;145.008;2022-07-29T04:24:43;2;2;
54869;PMS5003;40756;-37.950;145.008;2022-07-29T04:27:13;2;2;
54869;PMS5003;40756;-37.950;145.008;2022-07-29T04:29:43;4;4;
54869;PMS5003;40756;-37.950;145.008;2022-07-29T04:32:12;1;1;
54869;PMS5003;40756;-37.950;145.008;2022-07-29T04:34:42;2;2;
54869;PMS5003;40756;-37.950;145.008;2022-07-29T04:37:12;1;1;
54869;PMS5003;40756;-37.950;145.008;2022-07-29T04:39:41;0;0;
54869;PMS5003;40756;-37.950;145.008;2022-07-29T04:42:11;0;0;
54869;PMS5003;40756;-37.950;145.008;2022-07-29T04:44:42;4;1;
54869;PMS5003;40756;-37.950;145.008;2022-07-29T04:47:11;1;1;
54869;PMS5003;40756;-37.950;145.008;2022-07-29T04:49:41;1;1;
54869;PMS5003;40756;-37.950;145.008;2022-07-29T04:52:11;2;2;
54869;PMS5003;40756;-37.950;145.008;2022-07-29T04:54:41;0;0;
54869;PMS5003;40756;-37.950;145.008;2022-07-29T04:57:11;1;0;
54869;PMS5003;40756;-37.950;145.008;2022-07-29T04:59:41;1;1;
54869;PMS5003;40756;-37.950;145.008;2022-07-29T05:02:10;0;0;
54869;PMS5003;40756;-37.950;145.008;2022-07-29T05:04:40;1;1;
54869;PMS5003;40756;-37.950;145.008;2022-07-29T05:07:10;3;1;
54869;PMS5003;40756;-37.950;145.008;2022-07-29T05:09:40;2;1;
54869;PMS5003;40756;-37.950;145.008;2022-07-29T05:12:10;1;1;
54869;PMS5003;40756;-37.950;145.008;2022-07-29T05:14:40;1;1;
54869;PMS5003;40756;-37.950;145.008;2022-07-29T05:17:09;0;0;
54869;PMS5003;40756;-37.950;145.008;2022-07-29T05:19:39;0;0;
54869;PMS5003;40756;-37.950;145.008;2022-07-29T05:22:09;0;0;
54869;PMS5003;40756;-37.950;145.008;2022-07-29T05:24:38;0;0;
54869;PMS5003;40756;-37.950;145.008;2022-07-29T05:27:08;2;1;
54869;PMS5003;40756;-37.950;145.008;2022-07-29T05:29:38;2;1;
54869;PMS5003;40756;-37.950;145.008;2022-07-29T05:32:07;2;0;
54869;PMS5003;40756;-37.950;145.008;2022-07-29T05:34:37;0;0;
54869;PMS5003;40756;-37.950;145.008;2022-07-29T05:37:07;3;2;
54869;PMS5003;40756;-37.950;145.008;2022-07-29T05:39:36;0;0;
54869;PMS5003;40756;-37.950;145.008;2022-07-29T05:42:08;0;0;
54869;PMS5003;40756;-37.950;145.008;2022-07-29T05:44:38;3;0;
54869;PMS5003;40756;-37.950;145.008;2022-07-29T05:47:09;0;0;
54869;PMS5003;40756;-37.950;145.008;2022-07-29T05:49:39;0;0;
54869;PMS5003;40756;-37.950;145.008;2022-07-29T05:52:08;0;0;
54869;PMS5003;40756;-37.950;145.008;2022-07-29T05:54:38;2;1;
54869;PMS5003;40756;-37.950;145.008;2022-07-29T05:57:08;0;0;
54869;PMS5003;40756;-37.950;145.008;2022-07-29T05:59:43;0;0;
54869;PMS5003;40756;-37.950;145.008;2022-07-29T06:02:14;0;0;
54869;PMS5003;40756;-37.950;145.008;2022-07-29T06:04:44;1;0;
54869;PMS5003;40756;-37.950;145.008;2022-07-29T06:07:14;0;0;
54869;PMS5003;40756;-37.950;145.008;2022-07-29T06:09:44;1;1;
54869;PMS5003;40756;-37.950;145.008;2022-07-29T06:12:13;0;0;
54869;PMS5003;40756;-37.950;145.008;2022-07-29T06:14:43;0;0;
54869;PMS5003;40756;-37.950;145.008;2022-07-29T06:17:13;1;0;
54869;PMS5003;40756;-37.950;145.008;2022-07-29T06:19:43;0;0;
54869;PMS5003;40756;-37.950;145.008;2022-07-29T06:22:14;0;0;
54869;PMS5003;40756;-37.950;145.008;2022-07-29T06:24:44;1;1;
54869;PMS5003;40756;-37.950;145.008;2022-07-29T06:27:14;1;1;
54869;PMS5003;40756;-37.950;145.008;2022-07-29T06:29:43;1;1;
54869;PMS5003;40756;-37.950;145.008;2022-07-29T06:32:13;1;0;
54869;PMS5003;40756;-37.950;145.008;2022-07-29T06:34:43;0;0;
54869;PMS5003;40756;-37.950;145.008;2022-07-29T06:37:12;1;0;
54869;PMS5003;40756;-37.950;145.008;2022-07-29T06:39:42;1;1;
54869;PMS5003;40756;-37.950;145.008;2022-07-29T06:42:12;0;0;
54869;PMS5003;40756;-37.950;145.008;2022-07-29T06:44:42;1;0;
54869;PMS5003;40756;-37.950;145.008;2022-07-29T06:47:12;3;1;
54869;PMS5003;40756;-37.950;145.008;2022-07-29T06:49:42;0;0;
54869;PMS5003;40756;-37.950;145.008;2022-07-29T06:52:11;1;1;
54869;PMS5003;40756;-37.950;145.008;2022-07-29T06:54:41;1;0;
54869;PMS5003;40756;-37.950;145.008;2022-07-29T06:57:11;0;0;
54869;PMS5003;40756;-37.950;145.008;2022-07-29T06:59:40;1;0;
54869;PMS5003;40756;-37.950;145.008;2022-07-29T07:02:10;1;1;
54869;PMS5003;40756;-37.950;145.008;2022-07-29T07:04:40;16;16;
54869;PMS5003;40756;-37.950;145.008;2022-07-29T07:07:10;17;17;
54869;PMS5003;40756;-37.950;145.008;2022-07-29T07:09:40;19;18;
54869;PMS5003;40756;-37.950;145.008;2022-07-29T07:12:09;7;6;
54869;PMS5003;40756;-37.950;145.008;2022-07-29T07:14:39;1;1;
54869;PMS5003;40756;-37.950;145.008;2022-07-29T07:17:09;1;1;
54869;PMS5003;40756;-37.950;145.008;2022-07-29T07:19:39;1;1;
54869;PMS5003;40756;-37.950;145.008;2022-07-29T07:22:08;0;0;
54869;PMS5003;40756;-37.950;145.008;2022-07-29T07:24:38;1;1;
54869;PMS5003;40756;-37.950;145.008;2022-07-29T07:27:08;1;1;
54869;PMS5003;40756;-37.950;145.008;2022-07-29T07:29:39;0;0;
54869;PMS5003;40756;-37.950;145.008;2022-07-29T07:32:08;1;0;
54869;PMS5003;40756;-37.950;145.008;2022-07-29T07:34:39;1;1;
54869;PMS5003;40756;-37.950;145.008;2022-07-29T07:37:09;2;2;
54869;PMS5003;40756;-37.950;145.008;2022-07-29T07:39:38;3;3;
54869;PMS5003;40756;-37.950;145.008;2022-07-29T07:42:08;4;4;
54869;PMS5003;40756;-37.950;145.008;2022-07-29T07:44:38;4;4;
54869;PMS5003;40756;-37.950;145.008;2022-07-29T07:47:07;7;7;
54869;PMS5003;40756;-37.950;145.008;2022-07-29T07:49:38;6;5;
54869;PMS5003;40756;-37.950;145.008;2022-07-29T07:52:08;7;7;
54869;PMS5003;40756;-37.950;145.008;2022-07-29T07:54:38;8;7;
54869;PMS5003;40756;-37.950;145.008;2022-07-29T07:57:08;7;5;
54869;PMS5003;40756;-37.950;145.008;2022-07-29T07:59:43;4;4;
54869;PMS5003;40756;-37.950;145.008;2022-07-29T08:02:12;3;3;
54869;PMS5003;40756;-37.950;145.008;2022-07-29T08:04:41;3;3;
54869;PMS5003;40756;-37.950;145.008;2022-07-29T08:07:11;2;2;
54869;PMS5003;40756;-37.950;145.008;2022-07-29T08:09:41;4;3;
54869;PMS5003;40756;-37.950;145.008;2022-07-29T08:12:10;3;2;
54869;PMS5003;40756;-37.950;145.008;2022-07-29T08:14:40;3;3;
54869;PMS5003;40756;-37.950;145.008;2022-07-29T08:17:10;5;5;
54869;PMS5003;40756;-37.950;145.008;2022-07-29T08:19:40;6;5;
54869;PMS5003;40756;-37.950;145.008;2022-07-29T08:22:11;11;9;
54869;PMS5003;40756;-37.950;145.008;2022-07-29T08:24:40;13;11;
54869;PMS5003;40756;-37.950;145.008;2022-07-29T08:27:10;9;9;
54869;PMS5003;40756;-37.950;145.008;2022-07-29T08:29:40;13;13;
54869;PMS5003;40756;-37.950;145.008;2022-07-29T08:32:10;21;19;
54869;PMS5003;40756;-37.950;145.008;2022-07-29T08:34:40;14;13;
54869;PMS5003;40756;-37.950;145.008;2022-07-29T08:37:10;17;16;
54869;PMS5003;40756;-37.950;145.008;2022-07-29T08:39:40;21;20;
54869;PMS5003;40756;-37.950;145.008;2022-07-29T08:42:10;18;16;
54869;PMS5003;40756;-37.950;145.008;2022-07-29T08:44:40;15;15;
54869;PMS5003;40756;-37.950;145.008;2022-07-29T08:47:10;16;15;
54869;PMS5003;40756;-37.950;145.008;2022-07-29T08:49:43;18;18;
54869;PMS5003;40756;-37.950;145.008;2022-07-29T08:52:13;21;19;
54869;PMS5003;40756;-37.950;145.008;2022-07-29T08:54:43;20;20;
54869;PMS5003;40756;-37.950;145.008;2022-07-29T08:57:13;19;19;
54869;PMS5003;40756;-37.950;145.008;2022-07-29T08:59:43;20;20;
54869;PMS5003;40756;-37.950;145.008;2022-07-29T09:02:19;28;26;
54869;PMS5003;40756;-37.950;145.008;2022-07-29T09:04:49;30;30;
54869;PMS5003;40756;-37.950;145.008;2022-07-29T09:07:19;37;36;
54869;PMS5003;40756;-37.950;145.008;2022-07-29T09:09:49;34;33;
54869;PMS5003;40756;-37.950;145.008;2022-07-29T09:12:18;30;29;
54869;PMS5003;40756;-37.950;145.008;2022-07-29T09:14:49;36;33;
54869;PMS5003;40756;-37.950;145.008;2022-07-29T09:17:20;33;32;
54869;PMS5003;40756;-37.950;145.008;2022-07-29T09:20:10;35;32;
54869;PMS5003;40756;-37.950;145.008;2022-07-29T09:22:41;31;30;
54869;PMS5003;40756;-37.950;145.008;2022-07-29T09:25:11;28;27;
54869;PMS5003;40756;-37.950;145.008;2022-07-29T09:27:41;35;32;
54869;PMS5003;40756;-37.950;145.008;2022-07-29T09:30:18;31;27;
54869;PMS5003;40756;-37.950;145.008;2022-07-29T09:32:56;33;33;
54869;PMS5003;40756;-37.950;145.008;2022-07-29T09:35:27;45;44;
54869;PMS5003;40756;-37.950;145.008;2022-07-29T09:37:58;30;30;
54869;PMS5003;40756;-37.950;145.008;2022-07-29T09:40:40;32;32;
54869;PMS5003;40756;-37.950;145.008;2022-07-29T09:43:22;37;36;
54869;PMS5003;40756;-37.950;145.008;2022-07-29T09:45:53;45;44;
54869;PMS5003;40756;-37.950;145.008;2022-07-29T09:48:23;29;28;
54869;PMS5003;40756;-37.950;145.008;2022-07-29T09:50:54;48;47;
54869;PMS5003;40756;-37.950;145.008;2022-07-29T09:53:32;25;23;
54869;PMS5003;40756;-37.950;145.008;2022-07-29T09:56:02;53;49;
54869;PMS5003;40756;-37.950;145.008;2022-07-29T09:58:32;70;67;
54869;PMS5003;40756;-37.950;145.008;2022-07-29T10:01:02;60;58;
54869;PMS5003;40756;-37.950;145.008;2022-07-29T10:03:31;49;46;
54869;PMS5003;40756;-37.950;145.008;2022-07-29T11:08:18;61;60;
54869;PMS5003;40756;-37.950;145.008;2022-07-29T11:10:48;61;58;
54869;PMS5003;40756;-37.950;145.008;2022-07-29T11:13:50;60;57;
54869;PMS5003;40756;-37.950;145.008;2022-07-29T11:16:19;38;38;
54869;PMS5003;40756;-37.950;145.008;2022-07-29T11:20:08;40;39;
54869;PMS5003;40756;-37.950;145.008;2022-07-29T11:22:59;41;41;
54869;PMS5003;40756;-37.950;145.008;2022-07-29T11:25:28;98;95;
54869;PMS5003;40756;-37.950;145.008;2022-07-29T11:28:08;104;97;
54869;PMS5003;40756;-37.950;145.008;2022-07-29T11:30:55;101;97;
54869;PMS5003;40756;-37.950;145.008;2022-07-29T11:33:27;94;90;
54869;PMS5003;40756;-37.950;145.008;2022-07-29T11:36:07;100;94;
54869;PMS5003;40756;-37.950;145.008;2022-07-29T11:38:38;100;91;
54869;PMS5003;40756;-37.950;145.008;2022-07-29T11:41:24;113;110;
54869;PMS5003;40756;-37.950;145.008;2022-07-29T11:43:55;105;103;
54869;PMS5003;40756;-37.950;145.008;2022-07-29T11:46:57;131;126;
54869;PMS5003;40756;-37.950;145.008;2022-07-29T11:49:27;101;94;
54869;PMS5003;40756;-37.950;145.008;2022-07-29T11:51:57;109;105;
54869;PMS5003;40756;-37.950;145.008;2022-07-29T11:54:29;85;84;
54869;PMS5003;40756;-37.950;145.008;2022-07-29T11:57:00;88;84;
54869;PMS5003;40756;-37.950;145.008;2022-07-29T11:59:30;97;89;
54869;PMS5003;40756;-37.950;145.008;2022-07-29T12:02:06;99;93;
54869;PMS5003;40756;-37.950;145.008;2022-07-29T12:04:48;96;90;
54869;PMS5003;40756;-37.950;145.008;2022-07-29T12:07:18;103;95;
54869;PMS5003;40756;-37.950;145.008;2022-07-29T12:09:55;88;84;
54869;PMS5003;40756;-37.950;145.008;2022-07-29T12:12:25;85;82;
54869;PMS5003;40756;-37.950;145.008;2022-07-29T12:14:55;74;72;
54869;PMS5003;40756;-37.950;145.008;2022-07-29T12:17:26;84;79;
54869;PMS5003;40756;-37.950;145.008;2022-07-29T12:19:59;69;66;
54869;PMS5003;40756;-37.950;145.008;2022-07-29T12:22:31;68;66;
54869;PMS5003;40756;-37.950;145.008;2022-07-29T12:25:02;66;64;
54869;PMS5003;40756;-37.950;145.008;2022-07-29T12:27:39;67;65;
54869;PMS5003;40756;-37.950;145.008;2022-07-29T12:30:10;62;60;
54869;PMS5003;40756;-37.950;145.008;2022-07-29T12:32:42;56;55;
54869;PMS5003;40756;-37.950;145.008;2022-07-29T12:35:13;63;59;
54869;PMS5003;40756;-37.950;145.008;2022-07-29T12:37:45;60;59;
54869;PMS5003;40756;-37.950;145.008;2022-07-29T12:40:16;72;66;
54869;PMS5003;40756;-37.950;145.008;2022-07-29T12:43:05;72;65;
54869;PMS5003;40756;-37.950;145.008;2022-07-29T12:45:43;65;63;
54869;PMS5003;40756;-37.950;145.008;2022-07-29T12:48:14;62;60;
54869;PMS5003;40756;-37.950;145.008;2022-07-29T12:50:56;70;65;
54869;PMS5003;40756;-37.950;145.008;2022-07-29T12:53:28;65;59;
54869;PMS5003;40756;-37.950;145.008;2022-07-29T12:55:58;73;70;
54869;PMS5003;40756;-37.950;145.008;2022-07-29T12:58:29;83;75;
54869;PMS5003;40756;-37.950;145.008;2022-07-29T13:01:03;68;66;
54869;PMS5003;40756;-37.950;145.008;2022-07-29T13:03:44;68;67;
54869;PMS5003;40756;-37.950;145.008;2022-07-29T13:06:35;65;63;
54869;PMS5003;40756;-37.950;145.008;2022-07-29T13:09:08;73;68;
54869;PMS5003;40756;-37.950;145.008;2022-07-29T13:11:41;61;57;
54869;PMS5003;40756;-37.950;145.008;2022-07-29T13:14:13;57;56;
54869;PMS5003;40756;-37.950;145.008;2022-07-29T13:17:02;52;49;
54869;PMS5003;40756;-37.950;145.008;2022-07-29T13:19:34;55;52;
54869;PMS5003;40756;-37.950;145.008;2022-07-29T13:22:05;55;53;
54869;PMS5003;40756;-37.950;145.008;2022-07-29T13:24:46;55;51;
54869;PMS5003;40756;-37.950;145.008;2022-07-29T13:27:19;51;47;
54869;PMS5003;40756;-37.950;145.008;2022-07-29T13:29:50;48;48;
54869;PMS5003;40756;-37.950;145.008;2022-07-29T13:32:20;51;49;
54869;PMS5003;40756;-37.950;145.008;2022-07-29T13:34:53;46;46;
54869;PMS5003;40756;-37.950;145.008;2022-07-29T13:37:24;49;44;
54869;PMS5003;40756;-37.950;145.008;2022-07-29T13:39:53;48;47;
54869;PMS5003;40756;-37.950;145.008;2022-07-29T13:42:24;51;47;
54869;PMS5003;40756;-37.950;145.008;2022-07-29T13:44:54;49;48;
54869;PMS5003;40756;-37.950;145.008;2022-07-29T13:47:24;50;48;
54869;PMS5003;40756;-37.950;145.008;2022-07-29T13:49:54;49;48;
54869;PMS5003;40756;-37.950;145.008;2022-07-29T13:52:24;50;48;
54869;PMS5003;40756;-37.950;145.008;2022-07-29T13:54:54;49;48;
54869;PMS5003;40756;-37.950;145.008;2022-07-29T13:57:23;51;48;
54869;PMS5003;40756;-37.950;145.008;2022-07-29T13:59:53;51;50;
54869;PMS5003;40756;-37.950;145.008;2022-07-29T14:02:23;57;53;
54869;PMS5003;40756;-37.950;145.008;2022-07-29T14:04:53;49;48;
54869;PMS5003;40756;-37.950;145.008;2022-07-29T14:07:23;50;48;
54869;PMS5003;40756;-37.950;145.008;2022-07-29T14:09:53;48;48;
54869;PMS5003;40756;-37.950;145.008;2022-07-29T14:12:24;49;47;
54869;PMS5003;40756;-37.950;145.008;2022-07-29T14:14:53;47;45;
54869;PMS5003;40756;-37.950;145.008;2022-07-29T14:17:23;50;49;
54869;PMS5003;40756;-37.950;145.008;2022-07-29T14:19:53;49;47;
54869;PMS5003;40756;-37.950;145.008;2022-07-29T14:22:22;50;47;
54869;PMS5003;40756;-37.950;145.008;2022-07-29T14:24:52;50;48;
54869;PMS5003;40756;-37.950;145.008;2022-07-29T14:27:22;55;54;
54869;PMS5003;40756;-37.950;145.008;2022-07-29T14:29:51;60;57;
54869;PMS5003;40756;-37.950;145.008;2022-07-29T14:32:21;57;52;
54869;PMS5003;40756;-37.950;145.008;2022-07-29T14:34:51;53;48;
54869;PMS5003;40756;-37.950;145.008;2022-07-29T14:37:20;55;55;
54869;PMS5003;40756;-37.950;145.008;2022-07-29T14:39:50;53;48;
54869;PMS5003;40756;-37.950;145.008;2022-07-29T14:42:20;53;51;
54869;PMS5003;40756;-37.950;145.008;2022-07-29T14:44:49;55;54;
54869;PMS5003;40756;-37.950;145.008;2022-07-29T14:47:19;60;55;
54869;PMS5003;40756;-37.950;145.008;2022-07-29T14:49:49;59;54;
54869;PMS5003;40756;-37.950;145.008;2022-07-29T14:52:18;52;51;
54869;PMS5003;40756;-37.950;145.008;2022-07-29T14:54:48;60;56;
54869;PMS5003;40756;-37.950;145.008;2022-07-29T14:57:17;55;51;
54869;PMS5003;40756;-37.950;145.008;2022-07-29T14:59:47;52;50;
54869;PMS5003;40756;-37.950;145.008;2022-07-29T15:02:16;54;53;
54869;PMS5003;40756;-37.950;145.008;2022-07-29T15:04:47;55;52;
54869;PMS5003;40756;-37.950;145.008;2022-07-29T15:07:16;56;56;
54869;PMS5003;40756;-37.950;145.008;2022-07-29T15:09:46;58;54;
54869;PMS5003;40756;-37.950;145.008;2022-07-29T15:12:15;65;63;
54869;PMS5003;40756;-37.950;145.008;2022-07-29T15:14:47;67;62;
54869;PMS5003;40756;-37.950;145.008;2022-07-29T15:17:16;62;61;
54869;PMS5003;40756;-37.950;145.008;2022-07-29T15:19:45;60;59;
54869;PMS5003;40756;-37.950;145.008;2022-07-29T15:22:15;63;61;
54869;PMS5003;40756;-37.950;145.008;2022-07-29T15:24:45;67;63;
54869;PMS5003;40756;-37.950;145.008;2022-07-29T15:27:14;67;65;
54869;PMS5003;40756;-37.950;145.008;2022-07-29T15:29:44;58;56;
54869;PMS5003;40756;-37.950;145.008;2022-07-29T15:32:14;52;52;
54869;PMS5003;40756;-37.950;145.008;2022-07-29T15:34:44;50;47;
54869;PMS5003;40756;-37.950;145.008;2022-07-29T15:37:13;45;43;
54869;PMS5003;40756;-37.950;145.008;2022-07-29T15:39:42;42;42;
54869;PMS5003;40756;-37.950;145.008;2022-07-29T15:42:12;49;47;
54869;PMS5003;40756;-37.950;145.008;2022-07-29T15:44:42;48;46;
54869;PMS5003;40756;-37.950;145.008;2022-07-29T15:47:11;42;39;
54869;PMS5003;40756;-37.950;145.008;2022-07-29T15:49:41;43;42;
54869;PMS5003;40756;-37.950;145.008;2022-07-29T15:52:10;39;38;
54869;PMS5003;40756;-37.950;145.008;2022-07-29T15:54:40;42;39;
54869;PMS5003;40756;-37.950;145.008;2022-07-29T15:57:09;40;39;
54869;PMS5003;40756;-37.950;145.008;2022-07-29T15:59:39;40;39;
54869;PMS5003;40756;-37.950;145.008;2022-07-29T16:02:09;40;40;
54869;PMS5003;40756;-37.950;145.008;2022-07-29T16:04:39;38;36;
54869;PMS5003;40756;-37.950;145.008;2022-07-29T16:07:08;41;40;
54869;PMS5003;40756;-37.950;145.008;2022-07-29T16:09:38;38;37;
54869;PMS5003;40756;-37.950;145.008;2022-07-29T16:12:08;42;41;
54869;PMS5003;40756;-37.950;145.008;2022-07-29T16:14:39;39;39;
54869;PMS5003;40756;-37.950;145.008;2022-07-29T16:17:13;45;41;
54869;PMS5003;40756;-37.950;145.008;2022-07-29T16:19:43;40;40;
54869;PMS5003;40756;-37.950;145.008;2022-07-29T16:22:13;39;37;
54869;PMS5003;40756;-37.950;145.008;2022-07-29T16:24:42;41;40;
54869;PMS5003;40756;-37.950;145.008;2022-07-29T16:27:12;40;38;
54869;PMS5003;40756;-37.950;145.008;2022-07-29T16:29:42;40;39;
54869;PMS5003;40756;-37.950;145.008;2022-07-29T16:32:11;41;39;
54869;PMS5003;40756;-37.950;145.008;2022-07-29T16:34:40;45;40;
54869;PMS5003;40756;-37.950;145.008;2022-07-29T16:37:10;37;36;
54869;PMS5003;40756;-37.950;145.008;2022-07-29T16:39:40;39;35;
54869;PMS5003;40756;-37.950;145.008;2022-07-29T16:42:09;37;35;
54869;PMS5003;40756;-37.950;145.008;2022-07-29T16:44:39;28;28;
54869;PMS5003;40756;-37.950;145.008;2022-07-29T16:47:08;41;38;
54869;PMS5003;40756;-37.950;145.008;2022-07-29T16:49:38;32;32;
54869;PMS5003;40756;-37.950;145.008;2022-07-29T16:52:08;29;29;
54869;PMS5003;40756;-37.950;145.008;2022-07-29T16:54:37;34;31;
54869;PMS5003;40756;-37.950;145.008;2022-07-29T16:57:07;31;30;
54869;PMS5003;40756;-37.950;145.008;2022-07-29T16:59:37;30;29;
54869;PMS5003;40756;-37.950;145.008;2022-07-29T17:03:08;27;26;
54869;PMS5003;40756;-37.950;145.008;2022-07-29T17:05:38;30;30;
54869;PMS5003;40756;-37.950;145.008;2022-07-29T17:08:07;25;24;
54869;PMS5003;40756;-37.950;145.008;2022-07-29T17:10:37;24;24;
54869;PMS5003;40756;-37.950;145.008;2022-07-29T17:13:06;23;21;
54869;PMS5003;40756;-37.950;145.008;2022-07-29T17:15:35;21;20;